createdAt,value
2018-09-18T00:01:03.499Z,40.42
2018-09-18T00:03:31.183Z,40.52
2018-09-18T00:05:58.868Z,40.67
2018-09-18T00:08:26.558Z,40.62
2018-09-18T00:10:54.218Z,40.87
2018-09-18T00:13:21.914Z,41.20
2018-09-18T00:15:49.566Z,40.86
2018-09-18T00:18:17.223Z,41.01
2018-09-18T00:20:44.871Z,41.03
2018-09-18T00:23:12.525Z,41.26
2018-09-18T00:25:40.240Z,41.28
2018-09-18T00:28:07.889Z,41.33
2018-09-18T00:30:35.541Z,41.54
2018-09-18T00:33:03.208Z,41.96
2018-09-18T00:35:30.844Z,41.73
2018-09-18T00:37:58.481Z,42.01
2018-09-18T00:40:26.096Z,41.47
2018-09-18T00:42:53.755Z,41.75
2018-09-18T00:45:21.394Z,42.24
2018-09-18T00:47:49.156Z,41.62
2018-09-18T00:50:16.835Z,41.53
2018-09-18T00:52:44.497Z,41.65
2018-09-18T00:55:12.201Z,41.66
2018-09-18T00:57:39.887Z,41.70
2018-09-18T01:00:07.539Z,41.68
2018-09-18T01:02:35.275Z,42.14
2018-09-18T01:05:02.993Z,42.25
2018-09-18T01:07:30.703Z,41.89
2018-09-18T01:09:58.381Z,41.96
2018-09-18T01:12:26.029Z,42.14
2018-09-18T01:14:53.715Z,41.82
2018-09-18T01:17:21.533Z,41.94
2018-09-18T01:19:49.259Z,41.66
2018-09-18T01:22:16.878Z,41.84
2018-09-18T01:24:44.722Z,41.55
2018-09-18T01:27:12.652Z,41.73
2018-09-18T01:29:40.433Z,41.60
2018-09-18T01:32:08.323Z,41.83
2018-09-18T01:34:36.286Z,42.09
2018-09-18T01:37:04.370Z,41.62
2018-09-18T01:39:32.414Z,41.23
2018-09-18T01:42:00.005Z,41.81
2018-09-18T01:44:27.895Z,41.71
2018-09-18T01:46:55.536Z,41.59
2018-09-18T01:49:23.255Z,41.95
2018-09-18T01:51:50.931Z,41.93
2018-09-18T01:54:18.664Z,41.91
2018-09-18T01:56:46.412Z,42.56
2018-09-18T01:59:14.017Z,42.43
2018-09-18T02:01:41.644Z,42.55
2018-09-18T02:04:09.318Z,42.81
2018-09-18T02:06:37.014Z,42.83
2018-09-18T02:09:05.480Z,42.56
2018-09-18T02:11:33.186Z,42.64
2018-09-18T02:14:00.917Z,42.84
2018-09-18T02:16:28.592Z,43.02
2018-09-18T02:18:56.394Z,42.85
2018-09-18T02:21:24.109Z,43.00
2018-09-18T02:23:51.805Z,43.30
2018-09-18T02:26:19.840Z,43.31
2018-09-18T02:28:47.609Z,43.23
2018-09-18T02:31:15.295Z,43.05
2018-09-18T02:33:42.952Z,43.64
2018-09-18T02:36:10.656Z,43.18
2018-09-18T02:38:38.322Z,43.46
2018-09-18T02:41:06.117Z,43.61
2018-09-18T02:43:33.862Z,43.99
2018-09-18T02:46:01.718Z,43.80
2018-09-18T02:48:29.383Z,43.98
2018-09-18T02:50:57.045Z,44.14
2018-09-18T02:53:24.715Z,44.23
2018-09-18T02:55:52.933Z,44.61
2018-09-18T02:58:20.654Z,44.33
2018-09-18T03:00:48.334Z,44.84
2018-09-18T03:03:16.054Z,44.67
2018-09-18T03:05:43.779Z,45.12
2018-09-18T03:08:11.489Z,45.80
2018-09-18T03:10:39.170Z,46.25
2018-09-18T03:13:06.904Z,46.13
2018-09-18T03:15:34.536Z,46.69
2018-09-18T03:18:02.168Z,46.59
2018-09-18T03:20:29.835Z,46.78
2018-09-18T03:22:57.474Z,46.89
2018-09-18T03:25:25.149Z,46.91
2018-09-18T03:27:52.805Z,47.07
2018-09-18T03:30:20.565Z,46.31
2018-09-18T03:32:48.334Z,46.74
2018-09-18T03:35:16.031Z,47.05
2018-09-18T03:37:43.667Z,47.62
2018-09-18T03:40:11.303Z,48.02
2018-09-18T03:42:39.027Z,48.22
2018-09-18T03:45:06.658Z,48.31
2018-09-18T03:47:34.275Z,48.16
2018-09-18T03:50:01.927Z,48.58
2018-09-18T03:52:29.540Z,48.80
2018-09-18T03:54:57.199Z,48.87
2018-09-18T03:57:24.853Z,49.16
2018-09-18T03:59:52.544Z,49.49
2018-09-18T04:02:20.162Z,49.43
2018-09-18T04:04:47.816Z,49.82
2018-09-18T04:07:15.490Z,49.47
2018-09-18T04:09:43.172Z,49.99
2018-09-18T04:12:10.924Z,49.38
2018-09-18T04:14:38.580Z,50.13
2018-09-18T04:17:06.225Z,49.89
2018-09-18T04:19:33.829Z,50.13
2018-09-18T04:22:01.537Z,50.05
2018-09-18T04:24:29.360Z,51.03
2018-09-18T04:26:56.980Z,51.44
2018-09-18T04:29:24.654Z,51.01
2018-09-18T04:31:52.301Z,51.12
2018-09-18T04:34:20.143Z,51.41
2018-09-18T04:36:47.825Z,51.44
2018-09-18T04:39:19.017Z,51.47
2018-09-18T04:41:48.802Z,51.58
2018-09-18T04:44:18.591Z,51.70
2018-09-18T04:46:48.797Z,52.06
2018-09-18T04:49:18.581Z,52.24
2018-09-18T04:51:46.522Z,52.75
2018-09-18T04:54:14.181Z,52.46
2018-09-18T04:56:41.789Z,52.61
2018-09-18T04:59:09.399Z,52.97
2018-09-18T05:01:37.136Z,52.96
2018-09-18T05:04:04.907Z,53.67
2018-09-18T05:06:32.764Z,53.86
2018-09-18T05:09:00.750Z,53.93
2018-09-18T05:11:28.623Z,54.01
2018-09-18T05:13:56.765Z,54.14
2018-09-18T05:16:24.672Z,53.85
2018-09-18T05:18:52.634Z,53.61
2018-09-18T05:21:20.608Z,54.06
2018-09-18T05:23:48.572Z,53.82
2018-09-18T05:26:16.521Z,53.79
2018-09-18T05:28:44.394Z,53.85
2018-09-18T05:31:12.340Z,53.68
2018-09-18T05:33:40.189Z,54.06
2018-09-18T05:36:08.026Z,53.72
2018-09-18T05:38:35.880Z,54.38
2018-09-18T05:41:04.035Z,53.97
2018-09-18T05:43:31.949Z,54.00
2018-09-18T05:45:59.790Z,54.08
2018-09-18T05:48:32.380Z,53.93
2018-09-18T05:51:00.354Z,53.94
2018-09-18T05:53:28.361Z,54.07
2018-09-18T05:55:56.217Z,53.72
2018-09-18T05:58:24.085Z,53.67
2018-09-18T06:00:51.947Z,53.81
2018-09-18T06:03:19.839Z,53.74
2018-09-18T06:05:47.784Z,53.64
2018-09-18T06:08:15.695Z,53.80
2018-09-18T06:10:43.518Z,53.31
2018-09-18T06:13:11.508Z,52.98
2018-09-18T06:15:39.409Z,53.29
2018-09-18T06:18:07.238Z,53.40
2018-09-18T06:20:35.136Z,53.92
2018-09-18T06:23:02.985Z,53.24
2018-09-18T06:25:30.910Z,53.36
2018-09-18T06:27:58.717Z,53.24
2018-09-18T06:30:26.490Z,53.42
2018-09-18T06:32:54.472Z,53.43
2018-09-18T06:35:22.564Z,53.02
2018-09-18T06:37:50.428Z,52.81
2018-09-18T06:40:18.308Z,53.09
2018-09-18T06:42:46.407Z,52.84
2018-09-18T06:45:14.519Z,52.29
2018-09-18T06:47:42.489Z,52.24
2018-09-18T06:50:10.405Z,52.16
2018-09-18T06:52:38.361Z,51.41
2018-09-18T06:55:06.509Z,51.23
2018-09-18T06:57:34.391Z,50.81
2018-09-18T07:00:02.316Z,48.88
2018-09-18T07:02:30.186Z,48.97
2018-09-18T07:04:58.041Z,47.60
2018-09-18T07:07:25.896Z,46.54
2018-09-18T07:09:53.693Z,45.61
2018-09-18T07:12:21.548Z,44.74
2018-09-18T07:14:49.529Z,43.36
2018-09-18T07:17:17.433Z,43.52
2018-09-18T07:19:45.336Z,43.52
2018-09-18T07:22:13.440Z,42.64
2018-09-18T07:24:41.474Z,41.05
2018-09-18T07:27:09.320Z,40.42
2018-09-18T07:29:37.154Z,40.05
2018-09-18T07:32:05.117Z,39.18
2018-09-18T07:34:33.033Z,37.64
2018-09-18T07:37:00.890Z,36.76
2018-09-18T07:39:28.725Z,35.40
2018-09-18T07:41:56.769Z,34.12
2018-09-18T07:44:24.670Z,33.24
2018-09-18T07:46:52.545Z,31.91
2018-09-18T07:49:20.374Z,31.81
2018-09-18T07:51:48.201Z,30.40
2018-09-18T07:54:16.073Z,29.26
2018-09-18T07:56:44.165Z,28.58
2018-09-18T07:59:12.211Z,27.98
2018-09-18T08:01:40.058Z,26.29
2018-09-18T08:04:07.892Z,26.37
2018-09-18T08:06:35.753Z,26.24
2018-09-18T08:09:05.750Z,25.21
2018-09-18T08:11:33.729Z,24.21
2018-09-18T08:14:01.713Z,24.01
2018-09-18T08:16:29.772Z,23.56
2018-09-18T08:18:57.844Z,23.48
2018-09-18T08:21:25.630Z,23.15
2018-09-18T08:23:53.445Z,23.19
2018-09-18T08:26:21.340Z,22.58
2018-09-18T08:28:49.241Z,22.96
2018-09-18T08:31:17.083Z,22.51
2018-09-18T08:33:44.972Z,22.97
2018-09-18T08:36:12.850Z,22.74
2018-09-18T08:38:40.507Z,22.08
2018-09-18T08:41:08.258Z,22.02
2018-09-18T08:43:35.978Z,21.38
2018-09-18T08:46:03.683Z,21.33
2018-09-18T08:48:32.025Z,21.16
2018-09-18T08:51:00.921Z,21.74
2018-09-18T08:53:29.122Z,21.29
2018-09-18T08:55:56.902Z,20.35
2018-09-18T08:58:25.122Z,21.29
2018-09-18T09:00:53.028Z,20.24
2018-09-18T09:03:21.043Z,19.54
2018-09-18T09:05:48.978Z,20.42
2018-09-18T09:08:16.985Z,20.80
2018-09-18T09:10:45.008Z,20.83
2018-09-18T09:13:12.863Z,19.32
2018-09-18T09:15:41.147Z,19.56
2018-09-18T09:18:09.120Z,20.37
2018-09-18T09:20:37.088Z,19.74
2018-09-18T09:23:05.072Z,20.24
2018-09-18T09:25:32.877Z,19.17
2018-09-18T09:28:00.788Z,18.84
2018-09-18T09:30:28.637Z,18.56
2018-09-18T09:32:56.663Z,19.71
2018-09-18T09:35:31.289Z,19.58
2018-09-18T09:37:59.180Z,19.69
2018-09-18T09:40:27.109Z,19.84
2018-09-18T09:42:55.016Z,19.13
2018-09-18T09:45:22.901Z,18.32
2018-09-18T09:47:50.930Z,18.88
2018-09-18T09:50:18.802Z,19.21
2018-09-18T09:52:46.908Z,18.80
2018-09-18T09:55:14.748Z,19.03
2018-09-18T09:57:42.624Z,18.87
2018-09-18T10:00:15.946Z,18.21
2018-09-18T10:02:45.759Z,17.97
2018-09-18T10:05:13.952Z,17.97
2018-09-18T10:07:42.114Z,17.13
2018-09-18T10:10:10.203Z,16.49
2018-09-18T10:12:38.348Z,16.49
2018-09-18T10:15:06.982Z,17.04
2018-09-18T10:17:34.930Z,17.80
2018-09-18T10:20:02.882Z,17.46
2018-09-18T10:22:30.775Z,16.13
2018-09-18T10:24:58.773Z,16.14
2018-09-18T10:27:26.725Z,16.18
2018-09-18T10:29:54.590Z,16.41
2018-09-18T10:32:22.538Z,15.62
2018-09-18T10:34:50.321Z,15.52
2018-09-18T10:37:18.183Z,16.22
2018-09-18T10:39:46.101Z,16.92
2018-09-18T10:42:14.212Z,16.33
2018-09-18T10:44:42.021Z,16.28
2018-09-18T10:47:09.721Z,15.53
2018-09-18T10:49:37.422Z,15.50
2018-09-18T10:52:05.123Z,15.38
2018-09-18T10:54:32.788Z,15.37
2018-09-18T10:57:00.492Z,15.23
2018-09-18T10:59:28.148Z,14.77
2018-09-18T11:01:55.886Z,14.12
2018-09-18T11:04:23.677Z,13.67
2018-09-18T11:06:51.649Z,13.28
2018-09-18T11:09:19.414Z,13.57
2018-09-18T11:11:47.135Z,13.64
2018-09-18T11:14:14.830Z,12.69
2018-09-18T11:16:42.528Z,12.42
2018-09-18T11:19:10.417Z,13.30
2018-09-18T11:21:38.708Z,13.29
2018-09-18T11:24:06.361Z,12.98
2018-09-18T11:26:34.607Z,12.92
2018-09-18T11:29:02.588Z,12.83
2018-09-18T11:31:30.797Z,12.33
2018-09-18T11:33:58.598Z,11.71
2018-09-18T11:36:27.346Z,11.53
2018-09-18T11:38:55.550Z,11.85
2018-09-18T11:41:23.750Z,12.54
2018-09-18T11:43:51.617Z,12.24
2018-09-18T11:46:19.711Z,11.76
2018-09-18T11:48:47.753Z,11.49
2018-09-18T11:51:15.726Z,11.27
2018-09-18T11:53:43.756Z,11.26
2018-09-18T11:56:11.596Z,10.67
2018-09-18T11:58:39.525Z,11.94
2018-09-18T12:01:07.519Z,11.68
2018-09-18T12:03:35.502Z,11.06
2018-09-18T12:06:03.467Z,10.83
2018-09-18T12:08:31.482Z,10.76
2018-09-18T12:10:59.460Z,10.03
2018-09-18T12:13:27.405Z,10.19
2018-09-18T12:15:55.278Z,10.26
2018-09-18T12:18:23.133Z,10.61
2018-09-18T12:20:51.050Z,10.70
2018-09-18T12:23:19.080Z,10.60
2018-09-18T12:25:46.938Z,10.66
2018-09-18T12:28:14.949Z,10.74
2018-09-18T12:30:43.229Z,11.01
2018-09-18T12:33:11.081Z,11.40
2018-09-18T12:35:39.139Z,10.65
2018-09-18T12:38:07.252Z,10.96
2018-09-18T12:40:35.196Z,10.96
2018-09-18T12:43:03.232Z,10.27
2018-09-18T12:45:31.041Z,9.99
2018-09-18T12:47:59.039Z,9.76
2018-09-18T12:50:26.926Z,9.51
2018-09-18T12:52:54.849Z,9.11
2018-09-18T12:55:22.736Z,8.68
2018-09-18T12:57:50.575Z,9.08
2018-09-18T13:00:18.610Z,9.02
2018-09-18T13:02:46.427Z,8.85
2018-09-18T13:05:14.482Z,8.72
2018-09-18T13:07:42.708Z,8.25
2018-09-18T13:10:10.772Z,8.66
2018-09-18T13:12:38.693Z,8.73
2018-09-18T13:15:06.618Z,9.36
2018-09-18T13:17:34.625Z,9.24
2018-09-18T13:20:02.602Z,8.97
2018-09-18T13:22:30.892Z,9.06
2018-09-18T13:24:58.927Z,9.29
2018-09-18T13:27:26.746Z,9.17
2018-09-18T13:29:54.638Z,9.38
2018-09-18T13:32:22.525Z,9.38
2018-09-18T13:34:50.483Z,9.63
2018-09-18T13:37:18.417Z,9.42
2018-09-18T13:39:46.460Z,9.11
2018-09-18T13:42:14.489Z,9.23
2018-09-18T13:44:42.359Z,9.13
2018-09-18T13:47:11.147Z,9.08
2018-09-18T13:49:39.122Z,9.19
2018-09-18T13:52:07.506Z,8.88
2018-09-18T13:54:35.553Z,9.17
2018-09-18T13:57:03.546Z,8.80
2018-09-18T13:59:31.463Z,9.26
2018-09-18T14:02:00.018Z,9.29
2018-09-18T14:04:28.026Z,9.51
2018-09-18T14:06:56.157Z,9.95
2018-09-18T14:09:24.575Z,9.50
2018-09-18T14:11:52.525Z,9.16
2018-09-18T14:14:21.108Z,9.17
2018-09-18T14:16:49.448Z,8.94
2018-09-18T14:19:17.702Z,8.32
2018-09-18T14:21:45.911Z,8.72
2018-09-18T14:24:13.758Z,9.88
2018-09-18T14:26:42.023Z,10.61
2018-09-18T14:29:10.046Z,11.36
2018-09-18T14:31:38.336Z,11.60
2018-09-18T14:34:06.517Z,11.72
2018-09-18T14:36:34.807Z,11.39
2018-09-18T14:39:04.529Z,11.68
2018-09-18T14:41:32.525Z,11.28
2018-09-18T14:44:00.403Z,11.58
2018-09-18T14:46:28.717Z,11.83
2018-09-18T14:48:56.635Z,11.87
2018-09-18T14:51:24.794Z,12.42
2018-09-18T14:53:52.962Z,11.76
2018-09-18T14:56:20.750Z,11.78
2018-09-18T14:58:48.599Z,11.03
2018-09-18T15:01:16.746Z,11.13
2018-09-18T15:03:44.576Z,11.65
2018-09-18T15:06:12.551Z,12.19
2018-09-18T15:08:40.639Z,12.82
2018-09-18T15:11:08.480Z,12.94
2018-09-18T15:13:36.357Z,12.54
2018-09-18T15:16:04.338Z,12.28
2018-09-18T15:18:32.486Z,12.50
2018-09-18T15:21:00.360Z,13.31
2018-09-18T15:23:28.241Z,13.63
2018-09-18T15:25:56.500Z,13.81
2018-09-18T15:28:24.389Z,14.66
2018-09-18T15:30:52.338Z,14.35
2018-09-18T15:33:20.242Z,14.36
2018-09-18T15:35:48.283Z,13.88
2018-09-18T15:38:16.566Z,14.04
2018-09-18T15:40:44.469Z,13.88
2018-09-18T15:43:12.228Z,14.81
2018-09-18T15:45:40.237Z,15.58
2018-09-18T15:48:08.086Z,16.55
2018-09-18T15:50:35.844Z,16.21
2018-09-18T15:53:03.576Z,16.96
2018-09-18T15:55:31.336Z,17.32
2018-09-18T15:57:59.095Z,17.38
2018-09-18T16:00:26.853Z,18.91
2018-09-18T16:02:54.667Z,20.18
2018-09-18T16:05:22.389Z,20.77
2018-09-18T16:07:50.132Z,21.50
2018-09-18T16:10:17.796Z,21.91
2018-09-18T16:12:45.535Z,22.53
2018-09-18T16:15:13.318Z,22.84
2018-09-18T16:17:40.955Z,23.24
2018-09-18T16:20:08.659Z,23.63
2018-09-18T16:22:36.350Z,23.87
2018-09-18T16:25:04.172Z,24.81
2018-09-18T16:27:31.865Z,24.93
2018-09-18T16:29:59.514Z,25.67
2018-09-18T16:32:27.248Z,25.79
2018-09-18T16:34:54.915Z,26.02
2018-09-18T16:37:22.588Z,26.32
2018-09-18T16:39:50.418Z,26.50
2018-09-18T16:42:18.091Z,26.15
2018-09-18T16:44:45.751Z,26.39
2018-09-18T16:47:13.426Z,26.44
2018-09-18T16:49:41.237Z,26.16
2018-09-18T16:52:08.934Z,26.88
2018-09-18T16:54:36.733Z,26.97
2018-09-18T16:57:04.425Z,27.06
2018-09-18T16:59:32.281Z,26.79
2018-09-18T17:01:59.980Z,25.91
2018-09-18T17:04:27.748Z,27.25
2018-09-18T17:06:55.611Z,27.38
2018-09-18T17:09:23.370Z,27.18
2018-09-18T17:11:51.141Z,26.55
2018-09-18T17:14:18.907Z,27.08
2018-09-18T17:16:46.606Z,26.06
2018-09-18T17:19:14.499Z,26.79
2018-09-18T17:21:42.671Z,26.92
2018-09-18T17:24:10.353Z,26.66
2018-09-18T17:26:38.093Z,26.98
2018-09-18T17:29:17.455Z,27.55
2018-09-18T17:31:45.522Z,27.63
2018-09-18T17:34:13.535Z,28.34
2018-09-18T17:36:41.270Z,29.41
2018-09-18T17:39:09.897Z,29.69
2018-09-18T17:41:37.687Z,31.04
2018-09-18T17:44:05.405Z,31.76
2018-09-18T17:46:33.127Z,32.12
2018-09-18T17:49:00.788Z,32.75
2018-09-18T17:51:28.484Z,33.02
2018-09-18T17:53:56.145Z,32.49
2018-09-18T17:56:23.861Z,32.32
2018-09-18T17:58:51.614Z,32.54
2018-09-18T18:01:19.335Z,32.91
2018-09-18T18:03:47.281Z,33.48
2018-09-18T18:06:14.996Z,33.60
2018-09-18T18:08:42.683Z,33.35
2018-09-18T18:11:10.431Z,33.71
2018-09-18T18:13:38.178Z,34.04
2018-09-18T18:16:05.917Z,34.23
2018-09-18T18:18:34.485Z,33.84
2018-09-18T18:21:02.236Z,34.30
2018-09-18T18:23:29.945Z,32.61
2018-09-18T18:25:57.630Z,33.13
2018-09-18T18:28:25.418Z,32.80
2018-09-18T18:30:53.174Z,32.81
2018-09-18T18:33:20.936Z,31.97
2018-09-18T18:35:48.694Z,32.84
2018-09-18T18:38:16.554Z,33.52
2018-09-18T18:40:44.272Z,34.08
2018-09-18T18:43:12.131Z,34.00
2018-09-18T18:45:39.838Z,33.94
2018-09-18T18:48:07.820Z,34.20
2018-09-18T18:50:35.499Z,34.26
2018-09-18T18:53:03.172Z,34.12
2018-09-18T18:55:30.840Z,33.74
2018-09-18T18:57:58.556Z,33.51
2018-09-18T19:00:26.449Z,32.90
2018-09-18T19:02:54.268Z,32.46
2018-09-18T19:05:22.137Z,33.46
2018-09-18T19:07:49.857Z,32.84
2018-09-18T19:10:17.693Z,34.11
2018-09-18T19:12:45.430Z,33.82
2018-09-18T19:15:13.125Z,33.55
2018-09-18T19:17:40.822Z,34.26
2018-09-18T19:20:08.517Z,33.72
2018-09-18T19:22:36.311Z,34.82
2018-09-18T19:25:04.107Z,35.07
2018-09-18T19:27:33.038Z,35.73
2018-09-18T19:30:00.719Z,36.14
2018-09-18T19:32:28.425Z,36.49
2018-09-18T19:34:56.137Z,36.15
2018-09-18T19:37:23.817Z,36.63
2018-09-18T19:39:51.554Z,36.45
2018-09-18T19:42:19.289Z,36.94
2018-09-18T19:44:47.144Z,36.82
2018-09-18T19:47:14.909Z,36.06
2018-09-18T19:49:42.645Z,35.78
2018-09-18T19:52:11.127Z,36.02
2018-09-18T19:54:39.842Z,36.56
2018-09-18T19:57:07.536Z,35.78
2018-09-18T19:59:35.328Z,35.87
2018-09-18T20:02:03.089Z,36.08
2018-09-18T20:04:30.972Z,36.81
2018-09-18T20:06:58.945Z,36.48
2018-09-18T20:09:26.818Z,36.54
2018-09-18T20:11:54.565Z,37.12
2018-09-18T20:14:22.312Z,36.92
2018-09-18T20:16:50.204Z,36.99
2018-09-18T20:19:17.936Z,37.71
2018-09-18T20:21:45.650Z,37.59
2018-09-18T20:24:13.320Z,38.10
2018-09-18T20:26:40.985Z,38.37
2018-09-18T20:29:08.930Z,38.72
2018-09-18T20:31:36.655Z,38.56
2018-09-18T20:34:04.417Z,38.65
2018-09-18T20:36:32.103Z,37.95
2018-09-18T20:38:59.925Z,37.44
2018-09-18T20:41:27.608Z,37.27
2018-09-18T20:43:55.332Z,36.93
2018-09-18T20:46:23.210Z,37.57
2018-09-18T20:48:50.960Z,37.02
2018-09-18T20:51:18.763Z,37.12
2018-09-18T20:53:46.444Z,36.69
2018-09-18T20:56:14.210Z,37.09
2018-09-18T20:58:41.939Z,37.34
2018-09-18T21:01:09.635Z,36.98
2018-09-18T21:03:37.303Z,37.89
2018-09-18T21:06:05.064Z,38.00
2018-09-18T21:08:32.807Z,37.21
2018-09-18T21:11:00.459Z,37.30
2018-09-18T21:13:28.197Z,37.89
2018-09-18T21:15:55.972Z,37.74
2018-09-18T21:18:24.399Z,38.03
2018-09-18T21:20:52.185Z,37.91
2018-09-18T21:23:19.911Z,38.81
2018-09-18T21:26:11.992Z,38.41
2018-09-18T21:28:39.807Z,38.92
2018-09-18T21:31:07.747Z,38.72
2018-09-18T21:33:35.414Z,39.56
2018-09-18T21:36:03.165Z,40.45
2018-09-18T21:38:31.260Z,40.38
2018-09-18T21:40:58.927Z,40.87
2018-09-18T21:43:27.176Z,41.07
2018-09-18T21:45:54.929Z,41.40
2018-09-18T21:48:22.655Z,41.72
2018-09-18T21:50:50.313Z,42.37
2018-09-18T21:53:18.023Z,42.13
2018-09-18T21:55:45.960Z,42.20
2018-09-18T21:58:13.683Z,41.98
2018-09-18T22:00:41.875Z,42.34
2018-09-18T22:03:09.690Z,41.48
2018-09-18T22:05:37.458Z,41.02
2018-09-18T22:08:05.207Z,40.91
2018-09-18T22:10:32.966Z,42.14
2018-09-18T22:13:01.356Z,41.66
2018-09-18T22:15:29.681Z,42.37
2018-09-18T22:17:57.567Z,41.57
2018-09-18T22:20:25.423Z,42.15
2018-09-18T22:22:53.143Z,42.19
2018-09-18T22:25:21.764Z,42.93
2018-09-18T22:27:49.504Z,42.74
2018-09-18T22:30:17.240Z,43.13
2018-09-18T22:32:45.053Z,43.50
2018-09-18T22:35:12.758Z,43.60
2018-09-18T22:37:40.451Z,43.74
2018-09-18T22:40:08.266Z,43.85
2018-09-18T22:42:35.966Z,44.02
2018-09-18T22:45:03.797Z,43.91
2018-09-18T22:47:31.601Z,44.24
2018-09-18T22:49:59.295Z,43.41
2018-09-18T22:52:26.993Z,43.63
2018-09-18T22:54:54.755Z,43.36
2018-09-18T22:57:22.539Z,43.92
2018-09-18T22:59:50.234Z,44.31
2018-09-18T23:02:17.940Z,44.20
2018-09-18T23:04:45.654Z,44.99
2018-09-18T23:07:13.338Z,45.43
2018-09-18T23:09:41.053Z,44.86
2018-09-18T23:12:08.738Z,44.87
2018-09-18T23:14:36.557Z,45.37
2018-09-18T23:17:04.455Z,45.04
2018-09-18T23:19:32.354Z,44.96
2018-09-18T23:22:00.440Z,45.18
2018-09-18T23:24:28.262Z,45.40
2018-09-18T23:26:55.947Z,44.30
2018-09-18T23:29:23.769Z,44.77
2018-09-18T23:31:51.413Z,44.50
2018-09-18T23:34:19.136Z,44.91
2018-09-18T23:36:46.800Z,44.56
2018-09-18T23:39:14.478Z,44.82
2018-09-18T23:41:42.181Z,44.52
2018-09-18T23:44:09.863Z,44.95
2018-09-18T23:46:37.581Z,45.33
2018-09-18T23:49:05.342Z,45.38
2018-09-18T23:51:33.055Z,46.05
2018-09-18T23:54:00.707Z,45.87
2018-09-18T23:56:28.402Z,46.42
2018-09-18T23:58:56.093Z,46.01
